Aérodrome :
LOGIN :

S'inscrire | Disclaimer

   EN    FR    IT 

 










Légende :    VFR   VFR Marginal   IFR   IFR Intensif   IFR Très Intensif
Visi : 
Plafond : 
>= 8 km
>= 3000ft
5 à 8 km
1000 à 3000 ft
1500m à 5 km
500 à 1000 ft
800 à 1500m
200 à 500 ft
< 800m
< 200 ft
Symboles :   Orages  Brouillard  Fortes neiges  Fortes précipitations  Vent > 20 kt
SIGMETs :   Divers  Orages  Givrage  Turbulence  Onde Orograph.  Cendres Volcan.







- Altitude de l'aérodrome : 1197 ft
- Code IATA : SPM


ETAD - Spangdahlem Ab

DERNIER METAR :
  • 232356Z AUTO 20008KT 9999 -RA SCT007 OVC018 10/09 A2983 RMK AO2 RAE40RAB44 CIG 007V018 SLP093 P0002 60017 T00980092 10122 20098 58003 TSNO $

METARs EXPIRÉS :
  • 232340Z AUTO 20008KT 9999 BKN007 BKN012 OVC020 10/09 A2984 RMK AO2 RAE40 SLP097 TSNO $
  • 232344Z AUTO 20008KT 9999 -RA BKN007 OVC020 10/09 A2984 RMK AO2 RAE40RAB44 SLP097 TSNO $
  • 232331Z AUTO 21008KT 9999 -RA BKN007 BKN021 OVC031 10/09 A2984 RMK AO2 CIG 007V031 SLP097 TSNO $
  • 232316Z AUTO 21008KT 9999 -RA FEW007 FEW012 FEW020 OVC031 10/09 A2985 RMK AO2 SLP100 TSNO $
  • 232301Z AUTO 22010KT 9999 -RA SCT010 SCT014 10/09 A2985 RMK AO2 SLP100 TSNO $
  • 232256Z AUTO 22012KT 9999 RA SCT010 BKN015 10/09 A2985 RMK AO2 RAB08E22RAB27 CIG 010V015 SLP100 P0003 T01010092 401290044 TSNO $
  • 232227Z AUTO 23009KT 9999 -RA BKN012 OVC024 10/09 A2985 RMK AO2 RAB08E22RAB27 CIG 012V024 SLP100 TSNO $
  • 232222Z AUTO 23009KT 9999 BKN014 BKN024 10/09 A2985 RMK AO2 RAB08E22 CIG 014V024 BKN014 V SCT SLP100 TSNO $
  • 232208Z AUTO 23011KT 9999 -RA FEW007 SCT014 BKN023 BKN029 10/09 A2985 RMK AO2 RAB08 CIG 013V023 SLP100 TSNO $
  • 232201Z AUTO 23010KT 9999 SCT010 SCT016 BKN023 BKN036 10/09 A2985 RMK AO2 CIG 009V023 SLP100 TSNO $
  • 232156Z AUTO 23010KT 9999 SCT009 BKN015 BKN021 10/09 A2985 RMK AO2 RAE2056RAB2058E13RAB16E29 CIG 009V015 SLP100 P0000 T01020093 TSNO $
  • 232129Z AUTO 21009KT 9999 BKN009 BKN015 OVC022 10/10 A2985 RMK AO2 RAE2056RAB2058E13RAB16E29 CIG 009V016 BKN009 V SCT SLP100 TSNO $
  • 232116Z AUTO 21008KT 9999 -RA SCT009 BKN016 OVC022 10/10 A2984 RMK AO2 RAE2056RAB2058E13RAB16 SLP097 TSNO $
  • 232108Z AUTO 19007KT 9999 -RA SCT009 BKN014 BKN023 OVC028 10/10 A2984 RMK AO2 RAE2056RAB2058 CIG 008V014 SLP097 TSNO $

TAF AMD TAF ETAD
Valide du 22 à 21h jusqu'au 24 à 01h UTC


222059Z 2221/2401 20009KT 9999 SKC QNH2963INS
BECMG 2303/2304 20012G20KT 9999 FEW020 QNH2964INS
BECMG 2307/2308 20015G25KT 9999 BKN050 QNH2970INS
TEMPO 2308/2315 21025G35KT 520004
BECMG 2318/2319 23012G20KT 9000 -SHRA BKN020 QNH2980INS TX14/2314Z TN03/2300Z LAST NO AMDS AFT 2221 NEXT 2503
Pas de NOTAMs connus pour ce terrain.



MET'MAP, la Météo Aéronautique d'un coup d'oeil ! - Copyright ORBIFLY Décembre 2007 - Disclaimer

ORBIFLY MET'MAP TEAM :

Programmation & Développement : Alexandra Zaïnal
Conception & Développement : Baudouin d'Aumeries
Co-Programmation & Développement : Marc-Olivier Méhu
Soutien technique & logistique : Manuel Goepfert

Contact : metmap@orbifly.com




SOURCES & CREDITS :

   NOAA